Terminal Aerodrome Forecast
Issued by NWS Pocatello, ID

Home | Current Version | Previous Version | Text Only | Print | Product List | Glossary On
Versions: 1 2 3 4 5 6 7 8 9 10 11 12 13 14 15 16 17 18 19 20 21 22 23
000
FTUS45 KPIH 132143 AAB
TAFBYI
TAF AMD
KBYI 132143Z 1322/1418 03005KT 6SM BR BKN060
      TEMPO 1322/1401 BKN006
     FM140400 VRB03KT 6SM BR FEW003
     FM140900 VRB03KT 1SM BR BKN003=

USA.gov is the U.S. government's official web portal to all federal, state and local government web resources and services.